sensor_id;sensor_type;location;lat;lon;timestamp;P1;durP1;ratioP1;P2;durP2;ratioP2
22628;SDS011;11481;53.694;9.910;2022-10-17T00:01:23;7.93;;;1.90;;
22628;SDS011;11481;53.694;9.910;2022-10-17T00:03:50;5.55;;;2.22;;
22628;SDS011;11481;53.694;9.910;2022-10-17T00:06:17;5.57;;;1.98;;
22628;SDS011;11481;53.694;9.910;2022-10-17T00:08:43;3.80;;;2.03;;
22628;SDS011;11481;53.694;9.910;2022-10-17T00:11:14;5.60;;;1.65;;
22628;SDS011;11481;53.694;9.910;2022-10-17T00:13:47;5.80;;;2.05;;
22628;SDS011;11481;53.694;9.910;2022-10-17T00:16:18;5.38;;;1.95;;
22628;SDS011;11481;53.694;9.910;2022-10-17T00:18:52;6.47;;;2.05;;
22628;SDS011;11481;53.694;9.910;2022-10-17T00:21:19;3.53;;;1.55;;
22628;SDS011;11481;53.694;9.910;2022-10-17T00:23:46;8.60;;;1.95;;
22628;SDS011;11481;53.694;9.910;2022-10-17T00:26:13;4.20;;;1.60;;
22628;SDS011;11481;53.694;9.910;2022-10-17T00:28:41;4.43;;;1.63;;
22628;SDS011;11481;53.694;9.910;2022-10-17T00:31:08;3.53;;;1.77;;
22628;SDS011;11481;53.694;9.910;2022-10-17T00:33:34;3.20;;;1.80;;
22628;SDS011;11481;53.694;9.910;2022-10-17T00:36:12;3.88;;;1.88;;
22628;SDS011;11481;53.694;9.910;2022-10-17T00:38:49;4.20;;;1.50;;
22628;SDS011;11481;53.694;9.910;2022-10-17T00:41:19;2.65;;;1.50;;
22628;SDS011;11481;53.694;9.910;2022-10-17T00:46:20;3.65;;;1.52;;
22628;SDS011;11481;53.694;9.910;2022-10-17T00:48:49;5.10;;;1.75;;
22628;SDS011;11481;53.694;9.910;2022-10-17T00:51:19;2.15;;;1.42;;
22628;SDS011;11481;53.694;9.910;2022-10-17T00:53:52;4.00;;;1.77;;
22628;SDS011;11481;53.694;9.910;2022-10-17T00:56:18;4.05;;;1.75;;
22628;SDS011;11481;53.694;9.910;2022-10-17T00:58:46;5.38;;;1.80;;
22628;SDS011;11481;53.694;9.910;2022-10-17T01:01:13;7.38;;;1.45;;
22628;SDS011;11481;53.694;9.910;2022-10-17T01:03:41;2.72;;;1.15;;
22628;SDS011;11481;53.694;9.910;2022-10-17T01:06:08;2.45;;;1.35;;
22628;SDS011;11481;53.694;9.910;2022-10-17T01:08:34;6.90;;;1.80;;
22628;SDS011;11481;53.694;9.910;2022-10-17T01:14:25;3.45;;;2.05;;
22628;SDS011;11481;53.694;9.910;2022-10-17T01:19:35;2.83;;;1.88;;
22628;SDS011;11481;53.694;9.910;2022-10-17T01:31:16;3.72;;;1.67;;
22628;SDS011;11481;53.694;9.910;2022-10-17T01:33:51;5.50;;;1.75;;
22628;SDS011;11481;53.694;9.910;2022-10-17T01:36:34;3.10;;;2.00;;
22628;SDS011;11481;53.694;9.910;2022-10-17T01:39:16;3.10;;;1.70;;
22628;SDS011;11481;53.694;9.910;2022-10-17T01:44:38;6.07;;;2.20;;
22628;SDS011;11481;53.694;9.910;2022-10-17T01:47:28;11.82;;;2.47;;
22628;SDS011;11481;53.694;9.910;2022-10-17T01:49:59;4.63;;;2.38;;
22628;SDS011;11481;53.694;9.910;2022-10-17T01:52:37;4.45;;;1.67;;
22628;SDS011;11481;53.694;9.910;2022-10-17T01:55:12;7.28;;;1.80;;
22628;SDS011;11481;53.694;9.910;2022-10-17T01:57:45;3.65;;;1.50;;
22628;SDS011;11481;53.694;9.910;2022-10-17T02:00:21;3.85;;;1.80;;
22628;SDS011;11481;53.694;9.910;2022-10-17T02:02:51;2.50;;;1.25;;
22628;SDS011;11481;53.694;9.910;2022-10-17T02:05:29;3.15;;;1.73;;
22628;SDS011;11481;53.694;9.910;2022-10-17T02:07:58;3.22;;;1.60;;
22628;SDS011;11481;53.694;9.910;2022-10-17T02:10:29;3.50;;;1.58;;
22628;SDS011;11481;53.694;9.910;2022-10-17T02:15:56;5.15;;;1.60;;
22628;SDS011;11481;53.694;9.910;2022-10-17T02:26:26;10.10;;;1.42;;
22628;SDS011;11481;53.694;9.910;2022-10-17T02:31:50;4.93;;;1.90;;
22628;SDS011;11481;53.694;9.910;2022-10-17T02:34:24;3.92;;;1.70;;
22628;SDS011;11481;53.694;9.910;2022-10-17T02:36:58;2.95;;;1.67;;
22628;SDS011;11481;53.694;9.910;2022-10-17T02:39:27;3.75;;;1.95;;
22628;SDS011;11481;53.694;9.910;2022-10-17T02:41:55;4.07;;;1.95;;
22628;SDS011;11481;53.694;9.910;2022-10-17T02:44:25;2.88;;;1.70;;
22628;SDS011;11481;53.694;9.910;2022-10-17T02:47:00;2.65;;;1.60;;
22628;SDS011;11481;53.694;9.910;2022-10-17T02:49:33;5.25;;;2.05;;
22628;SDS011;11481;53.694;9.910;2022-10-17T02:52:08;2.50;;;1.63;;
22628;SDS011;11481;53.694;9.910;2022-10-17T02:57:33;8.23;;;2.10;;
22628;SDS011;11481;53.694;9.910;2022-10-17T03:00:10;4.47;;;2.08;;
22628;SDS011;11481;53.694;9.910;2022-10-17T03:02:39;3.00;;;1.80;;
22628;SDS011;11481;53.694;9.910;2022-10-17T03:05:08;6.03;;;2.13;;
22628;SDS011;11481;53.694;9.910;2022-10-17T03:07:36;3.30;;;1.75;;
22628;SDS011;11481;53.694;9.910;2022-10-17T03:10:03;4.45;;;1.80;;
22628;SDS011;11481;53.694;9.910;2022-10-17T03:12:30;4.60;;;2.42;;
22628;SDS011;11481;53.694;9.910;2022-10-17T03:14:57;4.47;;;2.63;;
22628;SDS011;11481;53.694;9.910;2022-10-17T03:17:23;4.18;;;1.98;;
22628;SDS011;11481;53.694;9.910;2022-10-17T03:19:50;3.58;;;2.20;;
22628;SDS011;11481;53.694;9.910;2022-10-17T03:22:16;3.92;;;1.90;;
22628;SDS011;11481;53.694;9.910;2022-10-17T03:24:44;5.95;;;2.08;;
22628;SDS011;11481;53.694;9.910;2022-10-17T03:27:10;5.18;;;2.20;;
22628;SDS011;11481;53.694;9.910;2022-10-17T03:29:37;5.00;;;2.40;;
22628;SDS011;11481;53.694;9.910;2022-10-17T03:32:03;3.40;;;1.75;;
22628;SDS011;11481;53.694;9.910;2022-10-17T03:34:30;3.13;;;1.90;;
22628;SDS011;11481;53.694;9.910;2022-10-17T03:36:57;4.30;;;2.05;;
22628;SDS011;11481;53.694;9.910;2022-10-17T03:39:23;4.70;;;2.38;;
22628;SDS011;11481;53.694;9.910;2022-10-17T03:41:50;2.92;;;1.55;;
22628;SDS011;11481;53.694;9.910;2022-10-17T03:44:17;6.85;;;2.20;;
22628;SDS011;11481;53.694;9.910;2022-10-17T03:46:43;3.28;;;2.00;;
22628;SDS011;11481;53.694;9.910;2022-10-17T03:49:10;3.35;;;1.70;;
22628;SDS011;11481;53.694;9.910;2022-10-17T03:51:36;6.35;;;1.90;;
22628;SDS011;11481;53.694;9.910;2022-10-17T03:54:03;3.00;;;1.65;;
22628;SDS011;11481;53.694;9.910;2022-10-17T03:56:30;3.78;;;1.88;;
22628;SDS011;11481;53.694;9.910;2022-10-17T03:58:56;7.43;;;2.33;;
22628;SDS011;11481;53.694;9.910;2022-10-17T04:01:23;2.60;;;1.67;;
22628;SDS011;11481;53.694;9.910;2022-10-17T04:03:50;2.13;;;1.58;;
22628;SDS011;11481;53.694;9.910;2022-10-17T04:06:19;3.40;;;1.85;;
22628;SDS011;11481;53.694;9.910;2022-10-17T04:08:46;3.92;;;1.63;;
22628;SDS011;11481;53.694;9.910;2022-10-17T04:11:14;2.80;;;1.67;;
22628;SDS011;11481;53.694;9.910;2022-10-17T04:13:42;4.80;;;1.73;;
22628;SDS011;11481;53.694;9.910;2022-10-17T04:16:14;3.95;;;1.92;;
22628;SDS011;11481;53.694;9.910;2022-10-17T04:18:42;4.13;;;1.90;;
22628;SDS011;11481;53.694;9.910;2022-10-17T04:21:09;4.13;;;2.25;;
22628;SDS011;11481;53.694;9.910;2022-10-17T04:23:36;3.90;;;1.58;;
22628;SDS011;11481;53.694;9.910;2022-10-17T04:26:04;2.70;;;1.45;;
22628;SDS011;11481;53.694;9.910;2022-10-17T04:28:33;2.50;;;1.65;;
22628;SDS011;11481;53.694;9.910;2022-10-17T04:31:01;3.30;;;1.77;;
22628;SDS011;11481;53.694;9.910;2022-10-17T04:33:32;2.90;;;1.60;;
22628;SDS011;11481;53.694;9.910;2022-10-17T04:36:03;6.10;;;2.22;;
22628;SDS011;11481;53.694;9.910;2022-10-17T04:38:31;2.72;;;1.55;;
22628;SDS011;11481;53.694;9.910;2022-10-17T04:40:59;3.35;;;2.10;;
22628;SDS011;11481;53.694;9.910;2022-10-17T04:43:30;2.25;;;1.52;;
22628;SDS011;11481;53.694;9.910;2022-10-17T04:46:00;3.03;;;1.48;;
22628;SDS011;11481;53.694;9.910;2022-10-17T04:48:29;2.88;;;1.45;;
22628;SDS011;11481;53.694;9.910;2022-10-17T04:50:59;4.15;;;1.70;;
22628;SDS011;11481;53.694;9.910;2022-10-17T04:53:35;3.65;;;1.48;;
22628;SDS011;11481;53.694;9.910;2022-10-17T04:56:07;3.63;;;1.70;;
22628;SDS011;11481;53.694;9.910;2022-10-17T04:58:35;2.45;;;1.58;;
22628;SDS011;11481;53.694;9.910;2022-10-17T05:01:03;6.38;;;1.70;;
22628;SDS011;11481;53.694;9.910;2022-10-17T05:03:32;3.83;;;1.70;;
22628;SDS011;11481;53.694;9.910;2022-10-17T05:06:03;3.13;;;1.70;;
22628;SDS011;11481;53.694;9.910;2022-10-17T05:08:34;4.47;;;1.40;;
22628;SDS011;11481;53.694;9.910;2022-10-17T05:11:01;2.70;;;1.48;;
22628;SDS011;11481;53.694;9.910;2022-10-17T05:13:53;2.38;;;1.50;;
22628;SDS011;11481;53.694;9.910;2022-10-17T05:16:21;2.47;;;1.35;;
22628;SDS011;11481;53.694;9.910;2022-10-17T05:18:50;2.67;;;1.30;;
22628;SDS011;11481;53.694;9.910;2022-10-17T05:21:18;3.88;;;1.80;;
22628;SDS011;11481;53.694;9.910;2022-10-17T05:23:45;2.90;;;1.70;;
22628;SDS011;11481;53.694;9.910;2022-10-17T05:26:12;3.10;;;1.80;;
22628;SDS011;11481;53.694;9.910;2022-10-17T05:28:39;4.00;;;2.00;;
22628;SDS011;11481;53.694;9.910;2022-10-17T05:31:07;2.80;;;1.52;;
22628;SDS011;11481;53.694;9.910;2022-10-17T05:33:35;3.05;;;1.48;;
22628;SDS011;11481;53.694;9.910;2022-10-17T05:36:03;3.05;;;1.70;;
22628;SDS011;11481;53.694;9.910;2022-10-17T05:38:30;2.60;;;1.60;;
22628;SDS011;11481;53.694;9.910;2022-10-17T05:40:57;3.33;;;1.40;;
22628;SDS011;11481;53.694;9.910;2022-10-17T05:43:24;2.95;;;1.58;;
22628;SDS011;11481;53.694;9.910;2022-10-17T05:45:51;2.67;;;1.70;;
22628;SDS011;11481;53.694;9.910;2022-10-17T05:48:19;2.55;;;1.63;;
22628;SDS011;11481;53.694;9.910;2022-10-17T05:50:46;3.97;;;1.58;;
22628;SDS011;11481;53.694;9.910;2022-10-17T05:53:14;4.72;;;1.63;;
22628;SDS011;11481;53.694;9.910;2022-10-17T05:55:41;5.28;;;2.03;;
22628;SDS011;11481;53.694;9.910;2022-10-17T05:58:07;3.05;;;1.45;;
22628;SDS011;11481;53.694;9.910;2022-10-17T06:00:42;3.13;;;1.55;;
22628;SDS011;11481;53.694;9.910;2022-10-17T06:03:14;3.13;;;1.70;;
22628;SDS011;11481;53.694;9.910;2022-10-17T06:05:40;4.30;;;1.77;;
22628;SDS011;11481;53.694;9.910;2022-10-17T06:08:09;2.90;;;1.50;;
22628;SDS011;11481;53.694;9.910;2022-10-17T06:10:37;4.30;;;1.88;;
22628;SDS011;11481;53.694;9.910;2022-10-17T06:13:03;4.65;;;2.20;;
22628;SDS011;11481;53.694;9.910;2022-10-17T06:15:30;2.42;;;1.60;;
22628;SDS011;11481;53.694;9.910;2022-10-17T06:17:57;3.40;;;1.50;;
22628;SDS011;11481;53.694;9.910;2022-10-17T06:20:23;3.45;;;1.77;;
22628;SDS011;11481;53.694;9.910;2022-10-17T06:22:50;9.35;;;2.28;;
22628;SDS011;11481;53.694;9.910;2022-10-17T06:25:16;3.15;;;1.77;;
22628;SDS011;11481;53.694;9.910;2022-10-17T06:27:43;2.83;;;1.67;;
22628;SDS011;11481;53.694;9.910;2022-10-17T06:30:10;4.97;;;2.17;;
22628;SDS011;11481;53.694;9.910;2022-10-17T06:32:36;3.03;;;1.77;;
22628;SDS011;11481;53.694;9.910;2022-10-17T06:35:03;3.90;;;1.90;;
22628;SDS011;11481;53.694;9.910;2022-10-17T06:37:31;4.18;;;2.08;;
22628;SDS011;11481;53.694;9.910;2022-10-17T06:40:02;3.60;;;1.98;;
22628;SDS011;11481;53.694;9.910;2022-10-17T06:42:30;4.07;;;2.05;;
22628;SDS011;11481;53.694;9.910;2022-10-17T06:44:57;3.85;;;1.70;;
22628;SDS011;11481;53.694;9.910;2022-10-17T06:47:23;3.65;;;1.90;;
22628;SDS011;11481;53.694;9.910;2022-10-17T06:49:50;3.10;;;1.80;;
22628;SDS011;11481;53.694;9.910;2022-10-17T06:52:16;3.55;;;2.00;;
22628;SDS011;11481;53.694;9.910;2022-10-17T06:54:43;4.03;;;1.85;;
22628;SDS011;11481;53.694;9.910;2022-10-17T06:57:09;3.67;;;1.90;;
22628;SDS011;11481;53.694;9.910;2022-10-17T06:59:36;3.55;;;1.77;;
22628;SDS011;11481;53.694;9.910;2022-10-17T07:02:03;5.95;;;2.20;;
22628;SDS011;11481;53.694;9.910;2022-10-17T07:04:30;4.43;;;2.05;;
22628;SDS011;11481;53.694;9.910;2022-10-17T07:06:57;3.97;;;2.38;;
22628;SDS011;11481;53.694;9.910;2022-10-17T07:09:29;3.70;;;2.13;;
22628;SDS011;11481;53.694;9.910;2022-10-17T07:11:56;10.43;;;3.28;;
22628;SDS011;11481;53.694;9.910;2022-10-17T07:14:23;4.05;;;1.80;;
22628;SDS011;11481;53.694;9.910;2022-10-17T07:16:57;8.10;;;1.88;;
22628;SDS011;11481;53.694;9.910;2022-10-17T07:19:24;3.88;;;2.20;;
22628;SDS011;11481;53.694;9.910;2022-10-17T07:21:52;4.13;;;2.10;;
22628;SDS011;11481;53.694;9.910;2022-10-17T07:24:19;6.30;;;2.70;;
22628;SDS011;11481;53.694;9.910;2022-10-17T07:26:46;3.97;;;2.17;;
22628;SDS011;11481;53.694;9.910;2022-10-17T07:29:13;5.03;;;2.72;;
22628;SDS011;11481;53.694;9.910;2022-10-17T07:31:39;3.60;;;2.05;;
22628;SDS011;11481;53.694;9.910;2022-10-17T07:34:06;4.43;;;2.35;;
22628;SDS011;11481;53.694;9.910;2022-10-17T07:36:32;4.60;;;2.10;;
22628;SDS011;11481;53.694;9.910;2022-10-17T07:38:59;5.60;;;2.30;;
22628;SDS011;11481;53.694;9.910;2022-10-17T07:41:26;3.72;;;1.90;;
22628;SDS011;11481;53.694;9.910;2022-10-17T07:43:52;5.47;;;1.90;;
22628;SDS011;11481;53.694;9.910;2022-10-17T07:46:19;5.43;;;2.58;;
22628;SDS011;11481;53.694;9.910;2022-10-17T07:48:45;3.75;;;1.80;;
22628;SDS011;11481;53.694;9.910;2022-10-17T07:51:12;5.07;;;2.33;;
22628;SDS011;11481;53.694;9.910;2022-10-17T07:53:39;3.63;;;2.03;;
22628;SDS011;11481;53.694;9.910;2022-10-17T07:56:13;3.58;;;2.45;;
22628;SDS011;11481;53.694;9.910;2022-10-17T07:58:39;6.13;;;2.53;;
22628;SDS011;11481;53.694;9.910;2022-10-17T08:01:07;3.60;;;2.15;;
22628;SDS011;11481;53.694;9.910;2022-10-17T08:03:40;4.93;;;2.35;;
22628;SDS011;11481;53.694;9.910;2022-10-17T08:06:11;4.95;;;2.42;;
22628;SDS011;11481;53.694;9.910;2022-10-17T08:08:39;3.90;;;2.30;;
22628;SDS011;11481;53.694;9.910;2022-10-17T08:11:07;4.85;;;2.40;;
22628;SDS011;11481;53.694;9.910;2022-10-17T08:13:36;5.43;;;2.78;;
22628;SDS011;11481;53.694;9.910;2022-10-17T08:16:04;4.40;;;2.35;;
22628;SDS011;11481;53.694;9.910;2022-10-17T08:18:34;5.93;;;2.50;;
22628;SDS011;11481;53.694;9.910;2022-10-17T08:21:02;4.18;;;2.25;;
22628;SDS011;11481;53.694;9.910;2022-10-17T08:23:31;3.58;;;2.05;;
22628;SDS011;11481;53.694;9.910;2022-10-17T08:26:01;4.38;;;2.15;;
22628;SDS011;11481;53.694;9.910;2022-10-17T08:28:29;4.47;;;2.08;;
22628;SDS011;11481;53.694;9.910;2022-10-17T08:31:03;7.28;;;2.13;;
22628;SDS011;11481;53.694;9.910;2022-10-17T08:33:38;5.05;;;2.22;;
22628;SDS011;11481;53.694;9.910;2022-10-17T08:36:06;3.80;;;2.20;;
22628;SDS011;11481;53.694;9.910;2022-10-17T08:38:34;5.35;;;2.05;;
22628;SDS011;11481;53.694;9.910;2022-10-17T08:41:04;4.60;;;2.28;;
22628;SDS011;11481;53.694;9.910;2022-10-17T08:46:11;4.15;;;2.42;;
22628;SDS011;11481;53.694;9.910;2022-10-17T08:48:39;5.97;;;2.85;;
22628;SDS011;11481;53.694;9.910;2022-10-17T08:51:13;5.13;;;2.10;;
22628;SDS011;11481;53.694;9.910;2022-10-17T08:56:17;4.30;;;1.98;;
22628;SDS011;11481;53.694;9.910;2022-10-17T08:59:09;3.53;;;2.25;;
22628;SDS011;11481;53.694;9.910;2022-10-17T09:01:47;6.40;;;2.40;;
22628;SDS011;11481;53.694;9.910;2022-10-17T09:04:43;4.90;;;2.03;;
22628;SDS011;11481;53.694;9.910;2022-10-17T09:07:35;5.28;;;2.40;;
22628;SDS011;11481;53.694;9.910;2022-10-17T09:10:20;3.15;;;1.70;;
22628;SDS011;11481;53.694;9.910;2022-10-17T09:13:14;5.22;;;2.05;;
22628;SDS011;11481;53.694;9.910;2022-10-17T09:19:30;3.70;;;2.22;;
22628;SDS011;11481;53.694;9.910;2022-10-17T09:21:44;4.45;;;2.47;;
22628;SDS011;11481;53.694;9.910;2022-10-17T09:24:18;5.15;;;2.30;;
22628;SDS011;11481;53.694;9.910;2022-10-17T09:27:14;6.32;;;2.05;;
22628;SDS011;11481;53.694;9.910;2022-10-17T09:33:12;4.00;;;2.05;;
22628;SDS011;11481;53.694;9.910;2022-10-17T09:36:00;5.20;;;2.35;;
22628;SDS011;11481;53.694;9.910;2022-10-17T09:38:35;3.78;;;1.92;;
22628;SDS011;11481;53.694;9.910;2022-10-17T09:41:05;6.18;;;2.30;;
22628;SDS011;11481;53.694;9.910;2022-10-17T09:44:10;4.38;;;2.05;;
22628;SDS011;11481;53.694;9.910;2022-10-17T09:46:38;5.03;;;2.20;;
22628;SDS011;11481;53.694;9.910;2022-10-17T09:49:08;6.65;;;2.53;;
22628;SDS011;11481;53.694;9.910;2022-10-17T09:51:42;4.28;;;2.33;;
22628;SDS011;11481;53.694;9.910;2022-10-17T09:54:57;4.82;;;2.60;;
22628;SDS011;11481;53.694;9.910;2022-10-17T10:03:08;7.63;;;2.40;;
22628;SDS011;11481;53.694;9.910;2022-10-17T10:05:38;3.30;;;1.63;;
22628;SDS011;11481;53.694;9.910;2022-10-17T10:08:13;5.32;;;2.03;;
22628;SDS011;11481;53.694;9.910;2022-10-17T10:10:42;7.10;;;2.45;;
22628;SDS011;11481;53.694;9.910;2022-10-17T10:15:46;4.90;;;2.03;;
22628;SDS011;11481;53.694;9.910;2022-10-17T10:23:41;4.30;;;2.20;;
22628;SDS011;11481;53.694;9.910;2022-10-17T10:29:03;6.55;;;2.45;;
22628;SDS011;11481;53.694;9.910;2022-10-17T10:31:33;4.53;;;2.17;;
22628;SDS011;11481;53.694;9.910;2022-10-17T10:34:20;6.60;;;2.28;;
22628;SDS011;11481;53.694;9.910;2022-10-17T10:37:13;5.63;;;2.95;;
22628;SDS011;11481;53.694;9.910;2022-10-17T10:39:48;5.43;;;2.70;;
22628;SDS011;11481;53.694;9.910;2022-10-17T10:42:18;3.92;;;2.05;;
22628;SDS011;11481;53.694;9.910;2022-10-17T10:44:52;6.05;;;2.28;;
22628;SDS011;11481;53.694;9.910;2022-10-17T10:47:25;4.30;;;2.40;;
22628;SDS011;11481;53.694;9.910;2022-10-17T10:55:46;9.25;;;2.85;;
22628;SDS011;11481;53.694;9.910;2022-10-17T10:58:26;5.07;;;2.75;;
22628;SDS011;11481;53.694;9.910;2022-10-17T11:00:55;6.38;;;2.80;;
22628;SDS011;11481;53.694;9.910;2022-10-17T11:03:32;5.70;;;2.75;;
22628;SDS011;11481;53.694;9.910;2022-10-17T11:06:12;6.22;;;2.35;;
22628;SDS011;11481;53.694;9.910;2022-10-17T11:08:48;3.42;;;1.98;;
22628;SDS011;11481;53.694;9.910;2022-10-17T11:11:29;6.63;;;2.80;;
22628;SDS011;11481;53.694;9.910;2022-10-17T11:17:02;5.70;;;2.30;;
22628;SDS011;11481;53.694;9.910;2022-10-17T11:22:15;4.00;;;2.25;;
22628;SDS011;11481;53.694;9.910;2022-10-17T11:27:42;3.92;;;2.53;;
22628;SDS011;11481;53.694;9.910;2022-10-17T11:30:12;6.03;;;2.85;;
22628;SDS011;11481;53.694;9.910;2022-10-17T11:32:42;4.72;;;2.45;;
22628;SDS011;11481;53.694;9.910;2022-10-17T11:35:23;4.53;;;2.53;;
22628;SDS011;11481;53.694;9.910;2022-10-17T11:38:02;4.68;;;2.20;;
22628;SDS011;11481;53.694;9.910;2022-10-17T11:40:45;7.00;;;4.13;;
22628;SDS011;11481;53.694;9.910;2022-10-17T11:45:54;4.20;;;2.35;;
22628;SDS011;11481;53.694;9.910;2022-10-17T11:48:29;5.47;;;2.80;;
22628;SDS011;11481;53.694;9.910;2022-10-17T11:51:07;7.45;;;3.05;;
22628;SDS011;11481;53.694;9.910;2022-10-17T11:53:56;6.00;;;2.97;;
22628;SDS011;11481;53.694;9.910;2022-10-17T11:56:52;4.15;;;2.38;;
22628;SDS011;11481;53.694;9.910;2022-10-17T12:16:15;9.75;;;4.53;;
22628;SDS011;11481;53.694;9.910;2022-10-17T12:18:47;9.80;;;4.90;;
22628;SDS011;11481;53.694;9.910;2022-10-17T12:21:16;5.43;;;2.83;;
22628;SDS011;11481;53.694;9.910;2022-10-17T12:23:52;4.68;;;2.58;;
22628;SDS011;11481;53.694;9.910;2022-10-17T12:26:26;9.55;;;3.58;;
22628;SDS011;11481;53.694;9.910;2022-10-17T12:28:54;4.57;;;2.40;;
22628;SDS011;11481;53.694;9.910;2022-10-17T12:31:23;6.22;;;2.70;;
22628;SDS011;11481;53.694;9.910;2022-10-17T12:34:02;5.78;;;3.13;;
22628;SDS011;11481;53.694;9.910;2022-10-17T12:46:41;5.97;;;3.22;;
22628;SDS011;11481;53.694;9.910;2022-10-17T12:55:05;9.07;;;3.85;;
22628;SDS011;11481;53.694;9.910;2022-10-17T13:03:31;8.95;;;3.22;;
22628;SDS011;11481;53.694;9.910;2022-10-17T13:06:01;11.38;;;3.80;;
22628;SDS011;11481;53.694;9.910;2022-10-17T13:08:41;8.63;;;3.95;;
22628;SDS011;11481;53.694;9.910;2022-10-17T13:11:10;10.95;;;4.60;;
22628;SDS011;11481;53.694;9.910;2022-10-17T13:16:08;6.40;;;3.30;;
22628;SDS011;11481;53.694;9.910;2022-10-17T13:18:51;8.88;;;3.50;;
22628;SDS011;11481;53.694;9.910;2022-10-17T13:21:18;10.77;;;4.75;;
22628;SDS011;11481;53.694;9.910;2022-10-17T13:23:45;8.23;;;4.15;;
22628;SDS011;11481;53.694;9.910;2022-10-17T13:26:15;7.78;;;3.80;;
22628;SDS011;11481;53.694;9.910;2022-10-17T13:29:03;8.98;;;4.35;;
22628;SDS011;11481;53.694;9.910;2022-10-17T13:31:32;8.57;;;3.67;;
22628;SDS011;11481;53.694;9.910;2022-10-17T13:34:02;7.13;;;3.55;;
22628;SDS011;11481;53.694;9.910;2022-10-17T13:36:30;10.07;;;3.80;;
22628;SDS011;11481;53.694;9.910;2022-10-17T13:38:59;6.00;;;3.95;;
22628;SDS011;11481;53.694;9.910;2022-10-17T13:41:38;7.57;;;3.40;;
22628;SDS011;11481;53.694;9.910;2022-10-17T13:44:13;6.10;;;3.58;;
22628;SDS011;11481;53.694;9.910;2022-10-17T13:47:19;9.23;;;4.18;;
22628;SDS011;11481;53.694;9.910;2022-10-17T13:49:49;6.90;;;3.78;;
22628;SDS011;11481;53.694;9.910;2022-10-17T13:52:21;9.63;;;3.95;;
22628;SDS011;11481;53.694;9.910;2022-10-17T13:54:50;9.40;;;4.07;;
22628;SDS011;11481;53.694;9.910;2022-10-17T13:57:21;8.77;;;4.10;;
22628;SDS011;11481;53.694;9.910;2022-10-17T14:00:20;7.72;;;3.97;;
22628;SDS011;11481;53.694;9.910;2022-10-17T14:02:48;7.13;;;3.28;;
22628;SDS011;11481;53.694;9.910;2022-10-17T14:05:16;8.13;;;4.55;;
22628;SDS011;11481;53.694;9.910;2022-10-17T14:07:56;10.60;;;4.00;;
22628;SDS011;11481;53.694;9.910;2022-10-17T14:10:45;8.85;;;4.78;;
22628;SDS011;11481;53.694;9.910;2022-10-17T14:15:59;9.38;;;4.38;;
22628;SDS011;11481;53.694;9.910;2022-10-17T14:18:28;8.30;;;4.20;;
22628;SDS011;11481;53.694;9.910;2022-10-17T14:21:01;10.25;;;4.47;;
22628;SDS011;11481;53.694;9.910;2022-10-17T14:23:49;8.05;;;3.80;;
22628;SDS011;11481;53.694;9.910;2022-10-17T14:26:19;10.48;;;4.88;;
22628;SDS011;11481;53.694;9.910;2022-10-17T14:29:12;12.10;;;4.88;;
22628;SDS011;11481;53.694;9.910;2022-10-17T14:31:49;10.50;;;4.43;;
22628;SDS011;11481;53.694;9.910;2022-10-17T14:34:25;11.55;;;5.40;;
22628;SDS011;11481;53.694;9.910;2022-10-17T14:37:07;10.25;;;4.10;;
22628;SDS011;11481;53.694;9.910;2022-10-17T14:39:36;9.45;;;5.20;;
22628;SDS011;11481;53.694;9.910;2022-10-17T14:42:03;7.57;;;4.38;;
22628;SDS011;11481;53.694;9.910;2022-10-17T14:44:34;8.88;;;4.50;;
22628;SDS011;11481;53.694;9.910;2022-10-17T14:47:02;10.02;;;5.38;;
22628;SDS011;11481;53.694;9.910;2022-10-17T14:49:57;8.50;;;4.03;;
22628;SDS011;11481;53.694;9.910;2022-10-17T14:52:33;8.52;;;4.57;;
22628;SDS011;11481;53.694;9.910;2022-10-17T14:55:11;10.07;;;5.55;;
22628;SDS011;11481;53.694;9.910;2022-10-17T14:57:51;8.90;;;4.38;;
22628;SDS011;11481;53.694;9.910;2022-10-17T15:00:18;9.77;;;4.32;;
22628;SDS011;11481;53.694;9.910;2022-10-17T15:02:46;8.07;;;4.55;;
22628;SDS011;11481;53.694;9.910;2022-10-17T15:05:15;9.00;;;4.22;;
22628;SDS011;11481;53.694;9.910;2022-10-17T15:07:42;9.25;;;4.43;;
22628;SDS011;11481;53.694;9.910;2022-10-17T15:10:51;8.13;;;4.28;;
22628;SDS011;11481;53.694;9.910;2022-10-17T15:13:24;8.93;;;4.47;;
22628;SDS011;11481;53.694;9.910;2022-10-17T15:15:54;10.57;;;4.93;;
22628;SDS011;11481;53.694;9.910;2022-10-17T15:18:21;9.60;;;4.65;;
22628;SDS011;11481;53.694;9.910;2022-10-17T15:20:49;9.10;;;4.15;;
22628;SDS011;11481;53.694;9.910;2022-10-17T15:23:31;12.27;;;5.50;;
22628;SDS011;11481;53.694;9.910;2022-10-17T15:25:58;12.40;;;5.15;;
22628;SDS011;11481;53.694;9.910;2022-10-17T15:28:25;10.73;;;5.13;;
22628;SDS011;11481;53.694;9.910;2022-10-17T15:31:18;9.38;;;4.45;;
22628;SDS011;11481;53.694;9.910;2022-10-17T15:33:46;10.35;;;5.10;;
22628;SDS011;11481;53.694;9.910;2022-10-17T15:36:21;9.75;;;5.60;;
22628;SDS011;11481;53.694;9.910;2022-10-17T15:38:54;12.25;;;5.75;;
22628;SDS011;11481;53.694;9.910;2022-10-17T15:41:23;10.77;;;5.75;;
22628;SDS011;11481;53.694;9.910;2022-10-17T15:43:51;10.10;;;4.88;;
22628;SDS011;11481;53.694;9.910;2022-10-17T15:46:19;13.35;;;5.45;;
22628;SDS011;11481;53.694;9.910;2022-10-17T15:48:48;12.73;;;6.28;;
22628;SDS011;11481;53.694;9.910;2022-10-17T15:51:16;12.93;;;5.68;;
22628;SDS011;11481;53.694;9.910;2022-10-17T15:53:43;13.77;;;6.63;;
22628;SDS011;11481;53.694;9.910;2022-10-17T15:56:38;14.90;;;5.97;;
22628;SDS011;11481;53.694;9.910;2022-10-17T15:59:09;10.95;;;5.47;;
22628;SDS011;11481;53.694;9.910;2022-10-17T16:01:37;13.82;;;6.20;;
22628;SDS011;11481;53.694;9.910;2022-10-17T16:04:05;13.52;;;7.00;;
22628;SDS011;11481;53.694;9.910;2022-10-17T16:06:31;14.18;;;6.43;;
22628;SDS011;11481;53.694;9.910;2022-10-17T16:08:58;12.02;;;6.28;;
22628;SDS011;11481;53.694;9.910;2022-10-17T16:11:35;11.40;;;6.22;;
22628;SDS011;11481;53.694;9.910;2022-10-17T16:14:10;13.02;;;6.20;;
22628;SDS011;11481;53.694;9.910;2022-10-17T16:16:38;12.05;;;6.60;;
22628;SDS011;11481;53.694;9.910;2022-10-17T16:19:05;10.57;;;6.13;;
22628;SDS011;11481;53.694;9.910;2022-10-17T16:21:34;13.45;;;6.57;;
22628;SDS011;11481;53.694;9.910;2022-10-17T16:24:03;12.35;;;6.47;;
22628;SDS011;11481;53.694;9.910;2022-10-17T16:26:29;13.88;;;6.28;;
22628;SDS011;11481;53.694;9.910;2022-10-17T16:28:56;10.10;;;5.38;;
22628;SDS011;11481;53.694;9.910;2022-10-17T16:31:29;11.45;;;6.05;;
22628;SDS011;11481;53.694;9.910;2022-10-17T16:33:59;13.02;;;6.40;;
22628;SDS011;11481;53.694;9.910;2022-10-17T16:36:27;13.45;;;5.72;;
22628;SDS011;11481;53.694;9.910;2022-10-17T16:38:54;11.18;;;5.03;;
22628;SDS011;11481;53.694;9.910;2022-10-17T16:41:22;11.40;;;5.07;;
22628;SDS011;11481;53.694;9.910;2022-10-17T16:43:51;11.95;;;5.50;;
22628;SDS011;11481;53.694;9.910;2022-10-17T16:46:19;9.63;;;5.13;;
22628;SDS011;11481;53.694;9.910;2022-10-17T16:48:46;8.82;;;5.00;;
22628;SDS011;11481;53.694;9.910;2022-10-17T16:51:13;8.50;;;4.53;;
22628;SDS011;11481;53.694;9.910;2022-10-17T16:53:43;9.32;;;4.70;;
22628;SDS011;11481;53.694;9.910;2022-10-17T16:56:16;9.63;;;4.90;;
22628;SDS011;11481;53.694;9.910;2022-10-17T16:58:49;11.45;;;5.32;;
22628;SDS011;11481;53.694;9.910;2022-10-17T17:01:17;10.85;;;4.85;;
22628;SDS011;11481;53.694;9.910;2022-10-17T17:03:47;10.05;;;5.03;;
22628;SDS011;11481;53.694;9.910;2022-10-17T17:06:15;11.23;;;5.00;;
22628;SDS011;11481;53.694;9.910;2022-10-17T17:08:44;14.80;;;4.95;;
22628;SDS011;11481;53.694;9.910;2022-10-17T17:11:12;10.50;;;4.90;;
22628;SDS011;11481;53.694;9.910;2022-10-17T17:13:40;12.70;;;5.20;;
22628;SDS011;11481;53.694;9.910;2022-10-17T17:18:35;12.98;;;5.07;;
22628;SDS011;11481;53.694;9.910;2022-10-17T17:21:03;11.30;;;5.45;;